Terminal Aerodrome Forecast
Issued by NWS Louisville, KY

Home | Current Version | Previous Version | Graphics & Text | Print | Product List | Glossary On
Versions: 1 2 3 4 5 6 7 8 9 10 11 12 13 14 15 16 17
000
FTUS43 KLMK 260531
TAFSDF
TAF
KSDF 260531Z 2606/2712 VRB03KT P6SM BKN150
     FM261000 VRB02KT 5SM BR SCT250
     FM261300 25006KT P6SM SCT045 PROB30 2620/2624 VRB10G20KT 4SM
      TSRA BR BKN035CB
     FM270000 VRB03KT P6SM SCT250=

USA.gov is the U.S. government's official web portal to all federal, state and local government web resources and services.